sensor_id;sensor_type;location;lat;lon;timestamp;temperature;humidity
77305;DHT22;66364;52.622;7.746;2023-06-26T00:00:32;21.00;99.90
77305;DHT22;66364;52.622;7.746;2023-06-26T00:02:33;21.00;99.90
77305;DHT22;66364;52.622;7.746;2023-06-26T00:04:35;21.00;99.90
77305;DHT22;66364;52.622;7.746;2023-06-26T00:06:36;21.00;99.90
77305;DHT22;66364;52.622;7.746;2023-06-26T00:08:37;21.00;99.90
77305;DHT22;66364;52.622;7.746;2023-06-26T00:10:38;21.00;99.90
77305;DHT22;66364;52.622;7.746;2023-06-26T00:12:39;21.00;99.90
77305;DHT22;66364;52.622;7.746;2023-06-26T00:14:40;21.10;99.90
77305;DHT22;66364;52.622;7.746;2023-06-26T00:16:40;21.00;99.90
77305;DHT22;66364;52.622;7.746;2023-06-26T00:18:41;20.50;99.90
77305;DHT22;66364;52.622;7.746;2023-06-26T00:20:42;20.90;99.90
77305;DHT22;66364;52.622;7.746;2023-06-26T00:22:43;20.80;99.90
77305;DHT22;66364;52.622;7.746;2023-06-26T00:24:44;20.80;99.90
77305;DHT22;66364;52.622;7.746;2023-06-26T00:26:46;20.40;99.90
77305;DHT22;66364;52.622;7.746;2023-06-26T00:28:48;20.80;99.90
77305;DHT22;66364;52.622;7.746;2023-06-26T00:30:54;20.80;99.90
77305;DHT22;66364;52.622;7.746;2023-06-26T00:32:56;20.80;99.90
77305;DHT22;66364;52.622;7.746;2023-06-26T00:34:57;20.80;99.90
77305;DHT22;66364;52.622;7.746;2023-06-26T00:36:57;20.50;99.90
77305;DHT22;66364;52.622;7.746;2023-06-26T00:38:59;20.80;99.90
77305;DHT22;66364;52.622;7.746;2023-06-26T00:40:59;20.80;99.90
77305;DHT22;66364;52.622;7.746;2023-06-26T00:43:01;20.70;99.90
77305;DHT22;66364;52.622;7.746;2023-06-26T00:45:02;20.70;99.90
77305;DHT22;66364;52.622;7.746;2023-06-26T00:47:04;20.20;99.90
77305;DHT22;66364;52.622;7.746;2023-06-26T00:49:05;20.60;99.90
77305;DHT22;66364;52.622;7.746;2023-06-26T00:51:07;20.40;99.90
77305;DHT22;66364;52.622;7.746;2023-06-26T00:53:09;20.40;99.90
77305;DHT22;66364;52.622;7.746;2023-06-26T00:55:10;20.50;99.90
77305;DHT22;66364;52.622;7.746;2023-06-26T00:57:12;20.50;99.90
77305;DHT22;66364;52.622;7.746;2023-06-26T00:59:13;20.50;99.90
77305;DHT22;66364;52.622;7.746;2023-06-26T01:01:15;20.50;99.90
77305;DHT22;66364;52.622;7.746;2023-06-26T01:03:16;20.50;99.90
77305;DHT22;66364;52.622;7.746;2023-06-26T01:05:17;20.10;99.90
77305;DHT22;66364;52.622;7.746;2023-06-26T01:07:19;20.50;99.90
77305;DHT22;66364;52.622;7.746;2023-06-26T01:09:22;20.40;99.90
77305;DHT22;66364;52.622;7.746;2023-06-26T01:11:24;20.40;99.90
77305;DHT22;66364;52.622;7.746;2023-06-26T01:13:26;20.40;99.90
77305;DHT22;66364;52.622;7.746;2023-06-26T01:15:29;20.40;99.90
77305;DHT22;66364;52.622;7.746;2023-06-26T01:17:30;20.40;99.90
77305;DHT22;66364;52.622;7.746;2023-06-26T01:19:31;20.40;99.90
77305;DHT22;66364;52.622;7.746;2023-06-26T01:21:40;20.40;99.90
77305;DHT22;66364;52.622;7.746;2023-06-26T01:27:54;20.60;99.90
77305;DHT22;66364;52.622;7.746;2023-06-26T01:29:56;20.60;99.90
77305;DHT22;66364;52.622;7.746;2023-06-26T01:31:58;20.60;99.90
77305;DHT22;66364;52.622;7.746;2023-06-26T01:34:00;20.60;99.90
77305;DHT22;66364;52.622;7.746;2023-06-26T01:36:02;20.40;99.90
77305;DHT22;66364;52.622;7.746;2023-06-26T01:38:18;20.50;99.90
77305;DHT22;66364;52.622;7.746;2023-06-26T01:40:16;20.30;99.90
77305;DHT22;66364;52.622;7.746;2023-06-26T01:42:17;20.30;99.90
77305;DHT22;66364;52.622;7.746;2023-06-26T01:44:33;20.30;99.90
77305;DHT22;66364;52.622;7.746;2023-06-26T01:51:06;20.10;99.90
77305;DHT22;66364;52.622;7.746;2023-06-26T01:53:13;20.10;99.90
77305;DHT22;66364;52.622;7.746;2023-06-26T01:57:21;20.00;99.90
77305;DHT22;66364;52.622;7.746;2023-06-26T01:59:22;19.90;99.90
77305;DHT22;66364;52.622;7.746;2023-06-26T02:01:23;19.90;99.90
77305;DHT22;66364;52.622;7.746;2023-06-26T02:03:24;20.10;99.90
77305;DHT22;66364;52.622;7.746;2023-06-26T02:05:25;19.80;99.90
77305;DHT22;66364;52.622;7.746;2023-06-26T02:07:26;19.80;99.90
77305;DHT22;66364;52.622;7.746;2023-06-26T02:09:27;19.80;99.90
77305;DHT22;66364;52.622;7.746;2023-06-26T02:11:28;19.80;99.90
77305;DHT22;66364;52.622;7.746;2023-06-26T02:13:29;19.80;99.90
77305;DHT22;66364;52.622;7.746;2023-06-26T02:15:30;19.80;99.90
77305;DHT22;66364;52.622;7.746;2023-06-26T02:17:31;19.80;99.90
77305;DHT22;66364;52.622;7.746;2023-06-26T02:19:32;19.80;99.90
77305;DHT22;66364;52.622;7.746;2023-06-26T02:21:34;19.80;99.90
77305;DHT22;66364;52.622;7.746;2023-06-26T02:23:35;19.90;99.90
77305;DHT22;66364;52.622;7.746;2023-06-26T02:25:36;19.70;99.90
77305;DHT22;66364;52.622;7.746;2023-06-26T02:27:38;19.60;99.90
77305;DHT22;66364;52.622;7.746;2023-06-26T02:29:40;19.60;99.90
77305;DHT22;66364;52.622;7.746;2023-06-26T02:31:41;19.80;99.90
77305;DHT22;66364;52.622;7.746;2023-06-26T02:33:42;19.60;99.90
77305;DHT22;66364;52.622;7.746;2023-06-26T02:35:43;19.60;99.90
77305;DHT22;66364;52.622;7.746;2023-06-26T02:37:43;19.70;99.90
77305;DHT22;66364;52.622;7.746;2023-06-26T02:39:45;19.50;99.90
77305;DHT22;66364;52.622;7.746;2023-06-26T02:41:45;19.50;99.90
77305;DHT22;66364;52.622;7.746;2023-06-26T02:43:47;19.30;99.90
77305;DHT22;66364;52.622;7.746;2023-06-26T02:45:47;19.50;99.90
77305;DHT22;66364;52.622;7.746;2023-06-26T02:47:48;19.50;99.90
77305;DHT22;66364;52.622;7.746;2023-06-26T02:49:49;19.50;99.90
77305;DHT22;66364;52.622;7.746;2023-06-26T02:51:50;19.70;99.90
77305;DHT22;66364;52.622;7.746;2023-06-26T02:54:00;20.00;99.90
77305;DHT22;66364;52.622;7.746;2023-06-26T02:56:01;19.70;99.90
77305;DHT22;66364;52.622;7.746;2023-06-26T02:58:17;19.70;99.90
77305;DHT22;66364;52.622;7.746;2023-06-26T03:00:18;19.80;99.90
77305;DHT22;66364;52.622;7.746;2023-06-26T03:02:19;19.80;99.90
77305;DHT22;66364;52.622;7.746;2023-06-26T03:04:20;19.60;99.90
77305;DHT22;66364;52.622;7.746;2023-06-26T03:06:21;19.80;99.90
77305;DHT22;66364;52.622;7.746;2023-06-26T03:08:23;19.80;99.90
77305;DHT22;66364;52.622;7.746;2023-06-26T03:10:24;19.90;99.90
77305;DHT22;66364;52.622;7.746;2023-06-26T03:12:25;19.90;99.90
77305;DHT22;66364;52.622;7.746;2023-06-26T03:14:35;19.90;99.90
77305;DHT22;66364;52.622;7.746;2023-06-26T03:16:36;19.80;99.90
77305;DHT22;66364;52.622;7.746;2023-06-26T03:18:37;19.80;99.90
77305;DHT22;66364;52.622;7.746;2023-06-26T03:21:00;19.80;99.90
77305;DHT22;66364;52.622;7.746;2023-06-26T03:23:00;19.80;99.90
77305;DHT22;66364;52.622;7.746;2023-06-26T03:25:02;19.70;99.90
77305;DHT22;66364;52.622;7.746;2023-06-26T03:27:04;19.70;99.90
77305;DHT22;66364;52.622;7.746;2023-06-26T03:29:05;19.70;99.90
77305;DHT22;66364;52.622;7.746;2023-06-26T03:31:05;19.70;99.90
77305;DHT22;66364;52.622;7.746;2023-06-26T03:33:07;19.80;99.90
77305;DHT22;66364;52.622;7.746;2023-06-26T03:35:07;19.90;99.90
77305;DHT22;66364;52.622;7.746;2023-06-26T03:37:09;20.00;99.90
77305;DHT22;66364;52.622;7.746;2023-06-26T03:39:10;20.20;99.90
77305;DHT22;66364;52.622;7.746;2023-06-26T03:41:11;20.20;99.90
77305;DHT22;66364;52.622;7.746;2023-06-26T03:43:12;20.30;99.90
77305;DHT22;66364;52.622;7.746;2023-06-26T03:45:16;20.40;99.90
77305;DHT22;66364;52.622;7.746;2023-06-26T03:47:17;20.50;99.90
77305;DHT22;66364;52.622;7.746;2023-06-26T03:49:18;20.50;99.90
77305;DHT22;66364;52.622;7.746;2023-06-26T03:51:19;20.50;99.90
77305;DHT22;66364;52.622;7.746;2023-06-26T03:53:20;20.60;99.90
77305;DHT22;66364;52.622;7.746;2023-06-26T03:55:21;20.60;99.90
77305;DHT22;66364;52.622;7.746;2023-06-26T03:57:21;20.70;99.90
77305;DHT22;66364;52.622;7.746;2023-06-26T03:59:22;20.80;99.90
77305;DHT22;66364;52.622;7.746;2023-06-26T04:01:24;21.00;99.90
77305;DHT22;66364;52.622;7.746;2023-06-26T04:03:25;21.10;99.90
77305;DHT22;66364;52.622;7.746;2023-06-26T04:05:26;21.30;99.90
77305;DHT22;66364;52.622;7.746;2023-06-26T04:07:26;21.40;99.90
77305;DHT22;66364;52.622;7.746;2023-06-26T04:09:27;21.60;99.90
77305;DHT22;66364;52.622;7.746;2023-06-26T04:11:28;21.60;99.90
77305;DHT22;66364;52.622;7.746;2023-06-26T04:13:29;21.70;99.90
77305;DHT22;66364;52.622;7.746;2023-06-26T04:15:31;21.70;99.90
77305;DHT22;66364;52.622;7.746;2023-06-26T04:17:33;21.80;99.90
77305;DHT22;66364;52.622;7.746;2023-06-26T04:19:33;21.80;99.90
77305;DHT22;66364;52.622;7.746;2023-06-26T04:21:35;21.90;99.90
77305;DHT22;66364;52.622;7.746;2023-06-26T04:23:36;21.90;99.90
77305;DHT22;66364;52.622;7.746;2023-06-26T04:25:37;21.90;99.90
77305;DHT22;66364;52.622;7.746;2023-06-26T04:27:38;22.00;99.90
77305;DHT22;66364;52.622;7.746;2023-06-26T04:29:39;22.00;99.90
77305;DHT22;66364;52.622;7.746;2023-06-26T04:31:40;22.00;99.90
77305;DHT22;66364;52.622;7.746;2023-06-26T04:33:41;22.00;99.90
77305;DHT22;66364;52.622;7.746;2023-06-26T04:35:42;22.10;99.90
77305;DHT22;66364;52.622;7.746;2023-06-26T04:37:43;22.10;99.90
77305;DHT22;66364;52.622;7.746;2023-06-26T04:39:44;22.10;99.90
77305;DHT22;66364;52.622;7.746;2023-06-26T04:41:45;22.10;99.90
77305;DHT22;66364;52.622;7.746;2023-06-26T04:43:46;22.20;99.90
77305;DHT22;66364;52.622;7.746;2023-06-26T04:45:47;22.20;99.90
77305;DHT22;66364;52.622;7.746;2023-06-26T04:47:48;22.10;99.90
77305;DHT22;66364;52.622;7.746;2023-06-26T04:49:49;22.10;99.90
77305;DHT22;66364;52.622;7.746;2023-06-26T04:51:50;22.10;99.90
77305;DHT22;66364;52.622;7.746;2023-06-26T04:53:50;22.10;99.90
77305;DHT22;66364;52.622;7.746;2023-06-26T04:55:53;22.10;99.90
77305;DHT22;66364;52.622;7.746;2023-06-26T04:57:54;22.10;99.90
77305;DHT22;66364;52.622;7.746;2023-06-26T04:59:56;22.10;99.90
77305;DHT22;66364;52.622;7.746;2023-06-26T05:01:57;22.20;99.90
77305;DHT22;66364;52.622;7.746;2023-06-26T05:04:00;22.20;99.90
77305;DHT22;66364;52.622;7.746;2023-06-26T05:06:02;22.10;99.90
77305;DHT22;66364;52.622;7.746;2023-06-26T05:08:23;22.20;99.90
77305;DHT22;66364;52.622;7.746;2023-06-26T05:10:23;22.20;99.90
77305;DHT22;66364;52.622;7.746;2023-06-26T05:12:25;22.20;99.90
77305;DHT22;66364;52.622;7.746;2023-06-26T05:14:27;22.20;99.90
77305;DHT22;66364;52.622;7.746;2023-06-26T05:16:30;22.20;99.90
77305;DHT22;66364;52.622;7.746;2023-06-26T05:18:32;22.20;99.90
77305;DHT22;66364;52.622;7.746;2023-06-26T05:20:36;22.20;99.90
77305;DHT22;66364;52.622;7.746;2023-06-26T05:22:39;22.10;99.90
77305;DHT22;66364;52.622;7.746;2023-06-26T05:24:44;22.10;99.90
77305;DHT22;66364;52.622;7.746;2023-06-26T05:26:49;22.10;99.90
77305;DHT22;66364;52.622;7.746;2023-06-26T05:28:50;22.10;99.90
77305;DHT22;66364;52.622;7.746;2023-06-26T05:30:57;22.20;99.90
77305;DHT22;66364;52.622;7.746;2023-06-26T05:33:13;22.20;99.90
77305;DHT22;66364;52.622;7.746;2023-06-26T05:35:17;22.20;99.90
77305;DHT22;66364;52.622;7.746;2023-06-26T05:37:21;22.20;99.90
77305;DHT22;66364;52.622;7.746;2023-06-26T05:39:23;22.20;99.90
77305;DHT22;66364;52.622;7.746;2023-06-26T05:41:25;22.20;99.90
77305;DHT22;66364;52.622;7.746;2023-06-26T05:43:27;22.20;99.90
77305;DHT22;66364;52.622;7.746;2023-06-26T05:45:28;22.30;99.90
77305;DHT22;66364;52.622;7.746;2023-06-26T05:47:29;22.30;99.90
77305;DHT22;66364;52.622;7.746;2023-06-26T05:49:31;22.30;99.90
77305;DHT22;66364;52.622;7.746;2023-06-26T05:51:32;22.30;99.90
77305;DHT22;66364;52.622;7.746;2023-06-26T05:53:34;22.30;99.90
77305;DHT22;66364;52.622;7.746;2023-06-26T05:55:35;22.30;99.90
77305;DHT22;66364;52.622;7.746;2023-06-26T05:57:37;22.30;99.90
77305;DHT22;66364;52.622;7.746;2023-06-26T05:59:40;22.30;99.90
77305;DHT22;66364;52.622;7.746;2023-06-26T06:01:41;22.30;99.90
77305;DHT22;66364;52.622;7.746;2023-06-26T06:03:41;22.30;99.90
77305;DHT22;66364;52.622;7.746;2023-06-26T06:05:42;22.30;99.90
77305;DHT22;66364;52.622;7.746;2023-06-26T06:07:44;22.30;99.90
77305;DHT22;66364;52.622;7.746;2023-06-26T06:09:53;22.30;99.90
77305;DHT22;66364;52.622;7.746;2023-06-26T06:11:53;22.30;99.90
77305;DHT22;66364;52.622;7.746;2023-06-26T06:13:55;22.40;99.90
77305;DHT22;66364;52.622;7.746;2023-06-26T06:15:55;22.40;99.90
77305;DHT22;66364;52.622;7.746;2023-06-26T06:17:56;22.60;99.90
77305;DHT22;66364;52.622;7.746;2023-06-26T06:19:57;22.60;99.90
77305;DHT22;66364;52.622;7.746;2023-06-26T06:21:58;22.70;99.90
77305;DHT22;66364;52.622;7.746;2023-06-26T06:23:59;22.90;99.90
77305;DHT22;66364;52.622;7.746;2023-06-26T06:26:00;22.90;99.90
77305;DHT22;66364;52.622;7.746;2023-06-26T06:28:01;23.00;99.90
77305;DHT22;66364;52.622;7.746;2023-06-26T06:30:02;23.00;99.90
77305;DHT22;66364;52.622;7.746;2023-06-26T06:32:04;22.70;99.90
77305;DHT22;66364;52.622;7.746;2023-06-26T06:34:05;22.80;99.90
77305;DHT22;66364;52.622;7.746;2023-06-26T06:36:06;22.70;99.90
77305;DHT22;66364;52.622;7.746;2023-06-26T06:38:07;22.70;99.90
77305;DHT22;66364;52.622;7.746;2023-06-26T06:40:10;22.20;99.90
77305;DHT22;66364;52.622;7.746;2023-06-26T06:42:11;22.70;99.90
77305;DHT22;66364;52.622;7.746;2023-06-26T06:44:12;22.70;99.90
77305;DHT22;66364;52.622;7.746;2023-06-26T06:46:12;22.80;99.90
77305;DHT22;66364;52.622;7.746;2023-06-26T06:48:14;22.80;99.90
77305;DHT22;66364;52.622;7.746;2023-06-26T06:50:15;22.90;99.90
77305;DHT22;66364;52.622;7.746;2023-06-26T06:52:15;22.90;99.90
77305;DHT22;66364;52.622;7.746;2023-06-26T06:54:16;23.00;99.90
77305;DHT22;66364;52.622;7.746;2023-06-26T06:56:17;22.90;99.90
77305;DHT22;66364;52.622;7.746;2023-06-26T06:58:18;22.90;99.90
77305;DHT22;66364;52.622;7.746;2023-06-26T07:00:19;22.90;99.90
77305;DHT22;66364;52.622;7.746;2023-06-26T07:02:20;22.70;99.90
77305;DHT22;66364;52.622;7.746;2023-06-26T07:04:21;22.40;99.90
77305;DHT22;66364;52.622;7.746;2023-06-26T07:06:22;21.50;99.90
77305;DHT22;66364;52.622;7.746;2023-06-26T07:08:22;21.30;99.90
77305;DHT22;66364;52.622;7.746;2023-06-26T07:10:24;20.60;99.90
77305;DHT22;66364;52.622;7.746;2023-06-26T07:12:25;20.60;99.90
77305;DHT22;66364;52.622;7.746;2023-06-26T07:14:27;20.40;99.90
77305;DHT22;66364;52.622;7.746;2023-06-26T07:16:31;20.20;99.90
77305;DHT22;66364;52.622;7.746;2023-06-26T07:18:32;20.10;99.90
77305;DHT22;66364;52.622;7.746;2023-06-26T07:20:34;20.20;99.90
77305;DHT22;66364;52.622;7.746;2023-06-26T07:22:36;20.40;99.90
77305;DHT22;66364;52.622;7.746;2023-06-26T07:24:37;20.30;99.90
77305;DHT22;66364;52.622;7.746;2023-06-26T07:26:38;20.40;99.90
77305;DHT22;66364;52.622;7.746;2023-06-26T07:28:39;20.30;99.90
77305;DHT22;66364;52.622;7.746;2023-06-26T07:30:40;20.40;99.90
77305;DHT22;66364;52.622;7.746;2023-06-26T07:32:44;20.40;99.90
77305;DHT22;66364;52.622;7.746;2023-06-26T07:34:44;20.30;99.90
77305;DHT22;66364;52.622;7.746;2023-06-26T07:36:45;20.20;99.90
77305;DHT22;66364;52.622;7.746;2023-06-26T07:38:46;20.40;99.90
77305;DHT22;66364;52.622;7.746;2023-06-26T07:40:47;20.50;99.90
77305;DHT22;66364;52.622;7.746;2023-06-26T07:42:48;20.60;99.90
77305;DHT22;66364;52.622;7.746;2023-06-26T07:44:49;20.70;99.90
77305;DHT22;66364;52.622;7.746;2023-06-26T07:46:50;20.90;99.90
77305;DHT22;66364;52.622;7.746;2023-06-26T07:48:51;21.10;99.90
77305;DHT22;66364;52.622;7.746;2023-06-26T07:50:52;21.40;99.90
77305;DHT22;66364;52.622;7.746;2023-06-26T07:52:53;21.70;99.90
77305;DHT22;66364;52.622;7.746;2023-06-26T07:54:54;21.60;99.90
77305;DHT22;66364;52.622;7.746;2023-06-26T07:57:04;21.80;99.90
77305;DHT22;66364;52.622;7.746;2023-06-26T07:59:05;21.80;99.90
77305;DHT22;66364;52.622;7.746;2023-06-26T08:01:06;21.90;99.90
77305;DHT22;66364;52.622;7.746;2023-06-26T08:03:07;22.00;99.90
77305;DHT22;66364;52.622;7.746;2023-06-26T08:05:08;22.20;99.90
77305;DHT22;66364;52.622;7.746;2023-06-26T08:07:09;22.30;99.90
77305;DHT22;66364;52.622;7.746;2023-06-26T08:09:10;22.60;99.90
77305;DHT22;66364;52.622;7.746;2023-06-26T08:11:11;23.00;99.90
77305;DHT22;66364;52.622;7.746;2023-06-26T08:13:12;23.20;99.90
77305;DHT22;66364;52.622;7.746;2023-06-26T08:15:13;23.10;99.90
77305;DHT22;66364;52.622;7.746;2023-06-26T08:17:14;23.30;99.90
77305;DHT22;66364;52.622;7.746;2023-06-26T08:19:17;23.30;99.90
77305;DHT22;66364;52.622;7.746;2023-06-26T08:21:18;23.20;99.90
77305;DHT22;66364;52.622;7.746;2023-06-26T08:23:19;23.40;99.90
77305;DHT22;66364;52.622;7.746;2023-06-26T08:25:20;23.50;99.90
77305;DHT22;66364;52.622;7.746;2023-06-26T08:27:21;23.60;99.90
77305;DHT22;66364;52.622;7.746;2023-06-26T08:29:22;23.30;99.90
77305;DHT22;66364;52.622;7.746;2023-06-26T08:31:23;23.30;99.90
77305;DHT22;66364;52.622;7.746;2023-06-26T08:33:24;23.30;99.90
77305;DHT22;66364;52.622;7.746;2023-06-26T08:35:25;23.30;99.90
77305;DHT22;66364;52.622;7.746;2023-06-26T08:37:26;23.50;99.90
77305;DHT22;66364;52.622;7.746;2023-06-26T08:39:27;23.70;99.90
77305;DHT22;66364;52.622;7.746;2023-06-26T08:41:28;23.70;99.90
77305;DHT22;66364;52.622;7.746;2023-06-26T08:43:29;23.70;99.90
77305;DHT22;66364;52.622;7.746;2023-06-26T08:45:30;23.80;99.90
77305;DHT22;66364;52.622;7.746;2023-06-26T08:47:34;24.10;99.90
77305;DHT22;66364;52.622;7.746;2023-06-26T08:52:52;24.10;99.90
77305;DHT22;66364;52.622;7.746;2023-06-26T08:54:10;24.10;99.90
77305;DHT22;66364;52.622;7.746;2023-06-26T08:56:15;24.30;99.90
77305;DHT22;66364;52.622;7.746;2023-06-26T08:58:17;24.10;99.90
77305;DHT22;66364;52.622;7.746;2023-06-26T09:00:18;24.20;99.90
77305;DHT22;66364;52.622;7.746;2023-06-26T09:02:20;24.30;99.90
77305;DHT22;66364;52.622;7.746;2023-06-26T09:04:21;24.20;99.90
77305;DHT22;66364;52.622;7.746;2023-06-26T09:06:22;24.20;99.90
77305;DHT22;66364;52.622;7.746;2023-06-26T09:08:24;24.20;99.90
77305;DHT22;66364;52.622;7.746;2023-06-26T09:10:25;24.20;99.90
77305;DHT22;66364;52.622;7.746;2023-06-26T09:12:29;24.50;99.90
77305;DHT22;66364;52.622;7.746;2023-06-26T09:14:31;24.50;99.90
77305;DHT22;66364;52.622;7.746;2023-06-26T09:16:39;24.60;99.90
77305;DHT22;66364;52.622;7.746;2023-06-26T09:18:40;24.60;99.90
77305;DHT22;66364;52.622;7.746;2023-06-26T09:20:41;24.70;98.20
77305;DHT22;66364;52.622;7.746;2023-06-26T09:22:43;24.30;87.40
77305;DHT22;66364;52.622;7.746;2023-06-26T09:24:45;24.30;86.80
77305;DHT22;66364;52.622;7.746;2023-06-26T09:26:47;24.40;86.10
77305;DHT22;66364;52.622;7.746;2023-06-26T09:28:48;24.80;84.30
77305;DHT22;66364;52.622;7.746;2023-06-26T09:30:49;25.20;81.00
77305;DHT22;66364;52.622;7.746;2023-06-26T09:32:50;25.50;81.10
77305;DHT22;66364;52.622;7.746;2023-06-26T09:34:52;25.80;79.10
77305;DHT22;66364;52.622;7.746;2023-06-26T09:36:55;26.20;77.30
77305;DHT22;66364;52.622;7.746;2023-06-26T09:38:56;26.00;77.70
77305;DHT22;66364;52.622;7.746;2023-06-26T09:40:57;26.20;75.90
77305;DHT22;66364;52.622;7.746;2023-06-26T09:43:13;26.60;74.20
77305;DHT22;66364;52.622;7.746;2023-06-26T09:45:17;26.70;73.50
77305;DHT22;66364;52.622;7.746;2023-06-26T09:47:18;26.30;71.60
77305;DHT22;66364;52.622;7.746;2023-06-26T09:49:19;26.30;76.50
77305;DHT22;66364;52.622;7.746;2023-06-26T09:51:22;26.10;72.20
77305;DHT22;66364;52.622;7.746;2023-06-26T09:53:25;26.00;74.10
77305;DHT22;66364;52.622;7.746;2023-06-26T09:55:26;25.70;70.80
77305;DHT22;66364;52.622;7.746;2023-06-26T09:57:27;25.40;74.90
77305;DHT22;66364;52.622;7.746;2023-06-26T09:59:31;25.80;74.50
77305;DHT22;66364;52.622;7.746;2023-06-26T10:01:33;26.00;74.30
77305;DHT22;66364;52.622;7.746;2023-06-26T10:03:34;25.70;74.80
77305;DHT22;66364;52.622;7.746;2023-06-26T10:05:35;25.30;72.30
77305;DHT22;66364;52.622;7.746;2023-06-26T10:07:37;25.00;71.30
77305;DHT22;66364;52.622;7.746;2023-06-26T10:09:42;25.60;74.30
77305;DHT22;66364;52.622;7.746;2023-06-26T10:12:02;26.40;70.10
77305;DHT22;66364;52.622;7.746;2023-06-26T10:14:13;27.00;66.10
77305;DHT22;66364;52.622;7.746;2023-06-26T10:16:18;27.40;66.30
77305;DHT22;66364;52.622;7.746;2023-06-26T10:18:21;27.60;63.30
77305;DHT22;66364;52.622;7.746;2023-06-26T10:20:25;27.20;61.20
77305;DHT22;66364;52.622;7.746;2023-06-26T10:22:29;26.70;64.80
77305;DHT22;66364;52.622;7.746;2023-06-26T10:24:33;27.00;62.00
77305;DHT22;66364;52.622;7.746;2023-06-26T10:26:39;27.00;61.60
77305;DHT22;66364;52.622;7.746;2023-06-26T10:28:43;27.00;64.20
77305;DHT22;66364;52.622;7.746;2023-06-26T10:30:46;27.20;60.10
77305;DHT22;66364;52.622;7.746;2023-06-26T10:32:49;27.50;57.20
77305;DHT22;66364;52.622;7.746;2023-06-26T10:34:52;26.80;58.00
77305;DHT22;66364;52.622;7.746;2023-06-26T10:37:00;26.20;60.50
77305;DHT22;66364;52.622;7.746;2023-06-26T10:39:05;26.40;64.40
77305;DHT22;66364;52.622;7.746;2023-06-26T10:41:12;26.20;60.90
77305;DHT22;66364;52.622;7.746;2023-06-26T10:43:14;26.10;61.10
77305;DHT22;66364;52.622;7.746;2023-06-26T10:45:19;26.00;60.50
77305;DHT22;66364;52.622;7.746;2023-06-26T10:47:30;26.10;62.60
77305;DHT22;66364;52.622;7.746;2023-06-26T10:49:31;26.30;61.20
77305;DHT22;66364;52.622;7.746;2023-06-26T10:51:32;26.20;65.50
77305;DHT22;66364;52.622;7.746;2023-06-26T10:53:33;25.80;66.70
77305;DHT22;66364;52.622;7.746;2023-06-26T10:55:35;26.00;65.20
77305;DHT22;66364;52.622;7.746;2023-06-26T10:57:37;26.30;63.00
77305;DHT22;66364;52.622;7.746;2023-06-26T10:59:39;26.80;61.40
77305;DHT22;66364;52.622;7.746;2023-06-26T11:01:41;26.80;60.50
77305;DHT22;66364;52.622;7.746;2023-06-26T11:03:44;26.60;62.00
77305;DHT22;66364;52.622;7.746;2023-06-26T11:05:48;26.40;62.60
77305;DHT22;66364;52.622;7.746;2023-06-26T11:08:05;26.50;61.90
77305;DHT22;66364;52.622;7.746;2023-06-26T11:10:09;26.50;59.40
77305;DHT22;66364;52.622;7.746;2023-06-26T11:12:10;26.30;61.30
77305;DHT22;66364;52.622;7.746;2023-06-26T11:14:13;26.00;59.40
77305;DHT22;66364;52.622;7.746;2023-06-26T11:16:14;25.20;61.10
77305;DHT22;66364;52.622;7.746;2023-06-26T11:18:16;25.10;60.40
77305;DHT22;66364;52.622;7.746;2023-06-26T11:20:18;25.00;61.60
77305;DHT22;66364;52.622;7.746;2023-06-26T11:22:19;25.60;60.20
77305;DHT22;66364;52.622;7.746;2023-06-26T11:24:21;26.30;53.10
77305;DHT22;66364;52.622;7.746;2023-06-26T11:26:22;26.50;54.40
77305;DHT22;66364;52.622;7.746;2023-06-26T11:28:23;26.00;54.00
77305;DHT22;66364;52.622;7.746;2023-06-26T11:30:25;25.30;55.80
77305;DHT22;66364;52.622;7.746;2023-06-26T11:32:27;25.00;56.40
77305;DHT22;66364;52.622;7.746;2023-06-26T11:34:32;25.00;55.80
77305;DHT22;66364;52.622;7.746;2023-06-26T11:36:34;24.70;58.50
77305;DHT22;66364;52.622;7.746;2023-06-26T11:38:38;24.70;61.00
77305;DHT22;66364;52.622;7.746;2023-06-26T11:40:39;24.90;61.50
77305;DHT22;66364;52.622;7.746;2023-06-26T11:42:40;24.90;57.70
77305;DHT22;66364;52.622;7.746;2023-06-26T11:44:42;25.30;56.10
77305;DHT22;66364;52.622;7.746;2023-06-26T11:46:44;25.70;55.60
77305;DHT22;66364;52.622;7.746;2023-06-26T11:48:45;26.10;51.30
77305;DHT22;66364;52.622;7.746;2023-06-26T11:50:50;25.80;48.40
77305;DHT22;66364;52.622;7.746;2023-06-26T11:52:58;25.00;52.60
77305;DHT22;66364;52.622;7.746;2023-06-26T11:55:01;24.90;55.40
77305;DHT22;66364;52.622;7.746;2023-06-26T11:57:02;25.00;52.20
77305;DHT22;66364;52.622;7.746;2023-06-26T11:59:06;25.00;53.50
77305;DHT22;66364;52.622;7.746;2023-06-26T12:01:08;25.20;55.00
77305;DHT22;66364;52.622;7.746;2023-06-26T12:03:09;25.00;56.90
77305;DHT22;66364;52.622;7.746;2023-06-26T12:05:19;25.10;52.20
77305;DHT22;66364;52.622;7.746;2023-06-26T12:07:21;24.80;53.30
77305;DHT22;66364;52.622;7.746;2023-06-26T12:09:22;24.40;60.10
77305;DHT22;66364;52.622;7.746;2023-06-26T12:11:24;24.20;55.90
77305;DHT22;66364;52.622;7.746;2023-06-26T12:13:25;24.00;56.00
77305;DHT22;66364;52.622;7.746;2023-06-26T12:15:28;23.90;56.70
77305;DHT22;66364;52.622;7.746;2023-06-26T12:17:29;24.00;56.50
77305;DHT22;66364;52.622;7.746;2023-06-26T12:19:30;23.80;55.60
77305;DHT22;66364;52.622;7.746;2023-06-26T12:23:42;24.00;56.50
77305;DHT22;66364;52.622;7.746;2023-06-26T12:25:43;24.40;60.00
77305;DHT22;66364;52.622;7.746;2023-06-26T12:27:48;24.50;51.50
77305;DHT22;66364;52.622;7.746;2023-06-26T12:29:51;24.50;50.60
77305;DHT22;66364;52.622;7.746;2023-06-26T12:31:52;24.10;52.80
77305;DHT22;66364;52.622;7.746;2023-06-26T12:33:53;24.20;52.30
77305;DHT22;66364;52.622;7.746;2023-06-26T12:36:12;24.30;52.50
77305;DHT22;66364;52.622;7.746;2023-06-26T12:38:14;24.00;47.30
77305;DHT22;66364;52.622;7.746;2023-06-26T12:40:18;24.20;52.10
77305;DHT22;66364;52.622;7.746;2023-06-26T12:42:22;24.60;52.10
77305;DHT22;66364;52.622;7.746;2023-06-26T12:44:27;24.70;48.90
77305;DHT22;66364;52.622;7.746;2023-06-26T12:46:37;24.80;49.80
77305;DHT22;66364;52.622;7.746;2023-06-26T12:48:40;25.00;50.90
77305;DHT22;66364;52.622;7.746;2023-06-26T12:50:54;25.00;50.50
77305;DHT22;66364;52.622;7.746;2023-06-26T12:52:55;25.70;39.50
77305;DHT22;66364;52.622;7.746;2023-06-26T12:54:57;26.10;41.20
77305;DHT22;66364;52.622;7.746;2023-06-26T12:56:57;26.50;36.10
77305;DHT22;66364;52.622;7.746;2023-06-26T12:58:58;26.70;36.80
77305;DHT22;66364;52.622;7.746;2023-06-26T13:01:00;26.80;35.90
77305;DHT22;66364;52.622;7.746;2023-06-26T13:03:01;26.90;34.70
77305;DHT22;66364;52.622;7.746;2023-06-26T13:05:02;26.40;29.80
77305;DHT22;66364;52.622;7.746;2023-06-26T13:07:17;26.10;34.70